Time;durP1;ratioP1;P1;durP2;ratioP2;P2;SDS_P1;SDS_P2;PMS_P1;PMS_P2;Temp;Humidity;BMP_temperature;BMP_pressure;BME280_temperature;BME280_humidity;BME280_pressure;Samples;Min_cycle;Max_cycle;Signal;HPM_P1;HPM_P2
2021/01/07 00:01:07;;;;;;;5.27;2.77;;;;;;;1.66;92.85;101578.44;5031418;28;20029;-81
2021/01/07 00:03:38;;;;;;;6.33;3.30;;;;;;;1.68;92.55;101574.34;5030433;28;20347;-80
2021/01/07 00:06:09;;;;;;;5.47;2.63;;;;;;;1.70;92.43;101575.34;5031091;28;20033;-77
2021/01/07 00:08:34;;;;;;;5.87;3.10;;;;;;;1.75;92.61;101578.19;5030136;28;20048;-78
2021/01/07 00:11:00;;;;;;;4.95;2.58;;;;;;;1.70;92.36;101567.75;5029501;28;20021;-80
2021/01/07 00:13:25;;;;;;;7.85;3.00;;;;;;;1.64;92.75;101572.38;5031802;28;20162;-80
2021/01/07 00:15:51;;;;;;;6.30;2.72;;;;;;;1.57;92.65;101572.69;5030012;28;20029;-80
2021/01/07 00:18:16;;;;;;;4.97;2.80;;;;;;;1.53;93.21;101571.59;5030229;28;20435;-82
2021/01/07 00:20:41;;;;;;;7.53;3.50;;;;;;;1.52;93.39;101574.00;5030060;28;20059;-80
2021/01/07 00:23:06;;;;;;;6.47;3.73;;;;;;;1.64;93.25;101576.56;5031644;28;20276;-80
2021/01/07 00:25:32;;;;;;;5.30;3.10;;;;;;;1.72;92.64;101576.31;5030178;28;20091;-80
2021/01/07 00:27:57;;;;;;;8.15;3.75;;;;;;;1.70;92.48;101577.88;5089791;23;20064;-80
2021/01/07 00:30:22;;;;;;;5.95;3.38;;;;;;;1.73;92.54;101570.47;5080571;28;20036;-79
2021/01/07 00:32:47;;;;;;;5.73;2.73;;;;;;;1.79;92.10;101564.97;5080460;28;20027;-79
2021/01/07 00:35:13;;;;;;;6.37;3.17;;;;;;;1.74;92.09;101569.72;5080017;28;20341;-78
2021/01/07 00:37:38;;;;;;;7.13;2.63;;;;;;;1.77;91.84;101572.47;5081017;28;20020;-77
2021/01/07 00:40:05;;;;;;;6.18;3.10;;;;;;;1.76;91.90;101564.75;5079263;28;20024;-77
2021/01/07 00:42:30;;;;;;;4.43;2.37;;;;;;;1.69;91.78;101557.50;5080262;28;20036;-77
2021/01/07 00:44:55;;;;;;;8.17;2.47;;;;;;;1.76;91.87;101559.69;5081167;28;20516;-78
2021/01/07 00:47:21;;;;;;;7.90;3.77;;;;;;;1.73;91.67;101562.00;5079518;28;20291;-77
2021/01/07 00:49:47;;;;;;;4.72;2.72;;;;;;;1.76;91.68;101552.97;5082762;28;20028;-78
2021/01/07 00:52:13;;;;;;;8.27;3.20;;;;;;;1.72;91.88;101553.53;5078563;28;20130;-78
2021/01/07 00:54:39;;;;;;;7.35;2.88;;;;;;;1.73;92.44;101557.81;5084219;28;20115;-78
2021/01/07 00:57:04;;;;;;;4.75;2.70;;;;;;;1.73;92.13;101555.28;5080053;28;20016;-79
2021/01/07 00:59:30;;;;;;;6.15;2.35;;;;;;;1.73;92.10;101556.94;5081470;28;20039;-78
2021/01/07 01:01:55;;;;;;;8.57;3.27;;;;;;;1.72;92.18;101562.78;5078336;28;20028;-79
2021/01/07 01:04:20;;;;;;;6.88;2.53;;;;;;;1.69;92.31;101563.44;5079680;28;20110;-78
2021/01/07 01:06:45;;;;;;;5.50;2.07;;;;;;;1.70;91.63;101557.59;5079583;28;20497;-80
2021/01/07 01:09:12;;;;;;;5.03;2.42;;;;;;;1.75;91.89;101558.81;5078132;28;20066;-82
2021/01/07 01:11:42;;;;;;;5.80;2.10;;;;;;;1.70;92.35;101560.13;5080877;28;20036;-81
2021/01/07 01:14:07;;;;;;;5.67;2.40;;;;;;;1.66;92.85;101553.09;5080040;28;20024;-80
2021/01/07 01:16:33;;;;;;;8.40;2.47;;;;;;;1.76;92.66;101555.50;5080076;28;20032;-81
2021/01/07 01:18:59;;;;;;;6.30;2.20;;;;;;;1.77;92.10;101552.19;5078197;28;20020;-80
2021/01/07 01:21:24;;;;;;;6.43;2.17;;;;;;;1.75;92.52;101545.25;5082233;28;20024;-80
2021/01/07 01:23:49;;;;;;;5.23;2.00;;;;;;;1.64;92.93;101547.06;5079643;28;20024;-80
2021/01/07 01:26:16;;;;;;;4.13;2.20;;;;;;;1.59;93.43;101544.94;5079065;28;20025;-80
2021/01/07 01:28:42;;;;;;;5.17;2.30;;;;;;;1.65;93.56;101541.22;5083046;28;20031;-80
2021/01/07 01:31:07;;;;;;;4.75;2.85;;;;;;;1.70;92.97;101542.41;5078804;28;20021;-79
2021/01/07 01:33:32;;;;;;;5.15;2.90;;;;;;;1.68;93.00;101536.38;5084021;28;20088;-80
2021/01/07 01:35:57;;;;;;;7.32;2.95;;;;;;;1.62;93.20;101533.38;5083989;28;20577;-78
2021/01/07 01:38:23;;;;;;;5.73;2.70;;;;;;;1.59;93.12;101534.81;5080244;28;20040;-79
2021/01/07 01:40:49;;;;;;;4.72;2.30;;;;;;;1.66;93.20;101548.03;5077881;28;20343;-80
2021/01/07 01:43:14;;;;;;;3.85;2.33;;;;;;;1.62;93.39;101540.97;5082245;28;20020;-80
2021/01/07 01:45:39;;;;;;;7.60;2.78;;;;;;;1.59;93.38;101545.81;5086596;28;20414;-80
2021/01/07 01:48:05;;;;;;;6.03;2.50;;;;;;;1.51;93.57;101542.75;5086128;28;20077;-79
2021/01/07 01:50:30;;;;;;;5.47;3.45;;;;;;;1.48;93.60;101540.00;5084848;28;20277;-79
2021/01/07 01:52:56;;;;;;;7.88;3.50;;;;;;;1.49;93.74;101535.81;5087056;28;20031;-81
2021/01/07 01:55:21;;;;;;;6.70;4.00;;;;;;;1.55;93.84;101531.19;5084619;28;20481;-79
2021/01/07 01:57:48;;;;;;;6.82;3.42;;;;;;;1.54;93.85;101526.91;5082268;28;20032;-79
2021/01/07 02:00:14;;;;;;;9.00;3.93;;;;;;;1.53;93.89;101532.72;5086158;28;20036;-79
2021/01/07 02:02:39;;;;;;;8.20;4.03;;;;;;;1.56;93.98;101531.28;5081913;28;20490;-80
2021/01/07 02:05:05;;;;;;;6.70;4.00;;;;;;;1.52;94.25;101529.31;5083723;28;20089;-79
2021/01/07 02:07:30;;;;;;;7.18;3.88;;;;;;;1.60;94.21;101527.31;5081032;28;20040;-79
2021/01/07 02:09:56;;;;;;;7.35;4.45;;;;;;;1.66;93.99;101531.97;5082599;28;20482;-79
2021/01/07 02:12:22;;;;;;;8.68;4.65;;;;;;;1.69;93.58;101528.00;5082144;28;20077;-79
2021/01/07 02:14:47;;;;;;;11.73;4.57;;;;;;;1.62;93.85;101528.31;5082663;28;20036;-80
2021/01/07 02:17:14;;;;;;;7.03;4.07;;;;;;;1.72;93.98;101528.19;5082065;28;20020;-77
2021/01/07 02:19:40;;;;;;;8.10;4.83;;;;;;;1.72;94.14;101530.72;5086036;28;20020;-77
2021/01/07 02:22:05;;;;;;;6.95;3.90;;;;;;;1.72;93.81;101523.13;5082250;28;20419;-77
2021/01/07 02:24:31;;;;;;;7.80;4.85;;;;;;;1.67;94.08;101532.06;5080993;28;20066;-77
2021/01/07 02:27:06;;;;;;;7.32;4.45;;;;;;;1.66;93.97;101527.78;5084461;28;20038;-77
2021/01/07 02:29:31;;;;;;;6.80;4.53;;;;;;;1.73;94.26;101529.97;5077830;28;20044;-77
2021/01/07 02:31:57;;;;;;;7.82;4.72;;;;;;;1.70;93.83;101524.69;5084152;28;20051;-76
2021/01/07 02:34:22;;;;;;;10.17;4.33;;;;;;;1.75;93.73;101523.34;5077747;28;20048;-79
2021/01/07 02:36:48;;;;;;;7.18;4.60;;;;;;;1.71;93.82;101521.38;5082620;28;20281;-78
2021/01/07 02:39:14;;;;;;;7.85;4.80;;;;;;;1.72;94.02;101523.13;5081392;28;20029;-79
2021/01/07 02:41:39;;;;;;;7.70;4.80;;;;;;;1.71;93.87;101521.38;5079826;28;20039;-78
2021/01/07 02:44:04;;;;;;;9.30;4.50;;;;;;;1.67;93.80;101513.47;5078877;28;20027;-79
2021/01/07 02:46:29;;;;;;;9.75;3.88;;;;;;;1.73;93.84;101518.94;5080990;28;20039;-78
2021/01/07 02:48:55;;;;;;;8.75;4.50;;;;;;;1.78;93.93;101515.97;5078914;28;20525;-79
2021/01/07 02:51:20;;;;;;;6.60;4.27;;;;;;;1.81;93.62;101508.56;5083081;28;20028;-79
2021/01/07 02:53:45;;;;;;;9.40;4.15;;;;;;;1.74;93.68;101506.38;5080453;28;20043;-80
2021/01/07 02:56:10;;;;;;;8.32;4.07;;;;;;;1.79;94.00;101506.72;5078325;28;20028;-79
2021/01/07 02:58:36;;;;;;;7.27;4.37;;;;;;;1.81;93.93;101498.44;5081567;28;20044;-79
2021/01/07 03:01:01;;;;;;;7.45;3.72;;;;;;;1.74;93.67;101501.31;5081503;28;20406;-79
2021/01/07 03:03:26;;;;;;;5.93;3.60;;;;;;;1.76;93.33;101492.19;5086756;28;20051;-79
2021/01/07 03:05:52;;;;;;;7.30;3.38;;;;;;;1.73;93.62;101498.69;5079683;28;20026;-80
2021/01/07 03:08:17;;;;;;;7.47;3.33;;;;;;;1.69;93.75;101494.19;5080233;28;20103;-80
2021/01/07 03:10:42;;;;;;;7.53;3.70;;;;;;;1.77;93.72;101495.59;5079711;28;20837;-80
2021/01/07 03:13:08;;;;;;;8.60;3.40;;;;;;;1.74;93.59;101493.72;5080360;28;20032;-80
2021/01/07 03:15:33;;;;;;;7.40;2.92;;;;;;;1.68;93.89;101485.72;5085718;28;20031;-80
2021/01/07 03:17:58;;;;;;;6.53;3.17;;;;;;;1.62;94.08;101494.50;5084528;28;20028;-80
2021/01/07 03:20:23;;;;;;;5.80;3.08;;;;;;;1.58;94.42;101487.47;5082156;28;20032;-80
2021/01/07 03:22:49;;;;;;;5.93;3.10;;;;;;;1.59;94.44;101487.59;5083206;28;20020;-79
2021/01/07 03:25:17;;;;;;;7.40;3.30;;;;;;;1.62;94.80;101477.66;5080683;28;20020;-78
2021/01/07 03:27:42;;;;;;;6.03;2.63;;;;;;;1.68;94.50;101485.72;5077016;28;20271;-78
2021/01/07 03:30:09;;;;;;;8.20;2.90;;;;;;;1.69;94.54;101482.41;5082337;28;20028;-78
2021/01/07 03:32:37;;;;;;;7.97;3.00;;;;;;;1.67;94.46;101472.94;5080794;28;20384;-78
2021/01/07 03:35:05;;;;;;;7.97;2.73;;;;;;;1.63;94.63;101476.91;5077468;28;20073;-78
2021/01/07 03:37:32;;;;;;;4.90;2.60;;;;;;;1.58;94.79;101468.09;5080846;28;20125;-77
2021/01/07 03:39:58;;;;;;;4.83;2.50;;;;;;;1.61;94.95;101468.31;5079331;28;20039;-78
2021/01/07 03:42:23;;;;;;;4.60;2.50;;;;;;;1.63;94.84;101465.91;5080054;28;20082;-79
2021/01/07 03:44:49;;;;;;;4.78;2.50;;;;;;;1.55;94.76;101462.81;5080029;28;20416;-78
2021/01/07 03:47:14;;;;;;;3.78;2.42;;;;;;;1.49;94.94;101465.81;5081150;28;20032;-79
2021/01/07 03:49:39;;;;;;;8.77;2.92;;;;;;;1.48;95.14;101468.25;5081676;28;20028;-78
2021/01/07 03:52:05;;;;;;;7.15;2.60;;;;;;;1.44;94.98;101469.69;5079840;28;20020;-78
2021/01/07 03:54:30;;;;;;;4.38;2.38;;;;;;;1.44;95.15;101473.88;5081045;28;20024;-78
2021/01/07 03:56:55;;;;;;;6.55;2.60;;;;;;;1.39;95.57;101460.91;5081718;28;20085;-78
2021/01/07 03:59:21;;;;;;;3.87;2.17;;;;;;;1.52;95.44;101467.69;5079065;28;20073;-78
2021/01/07 04:01:46;;;;;;;5.65;2.47;;;;;;;1.56;95.42;101462.06;5084570;28;20280;-78
2021/01/07 04:04:12;;;;;;;4.22;2.20;;;;;;;1.61;94.99;101467.44;5080289;28;20024;-78
2021/01/07 04:06:37;;;;;;;6.57;2.22;;;;;;;1.70;94.99;101463.91;5078781;28;20067;-78
2021/01/07 04:09:04;;;;;;;4.17;1.57;;;;;;;1.81;95.04;101467.16;5076483;28;20039;-78
2021/01/07 04:11:29;;;;;;;4.20;1.93;;;;;;;1.82;94.46;101469.78;5084728;28;20263;-77
2021/01/07 04:13:54;;;;;;;4.13;1.92;;;;;;;1.90;94.24;101464.38;5078342;28;20020;-78
2021/01/07 04:16:20;;;;;;;3.83;1.83;;;;;;;1.88;94.13;101462.59;5075510;28;20070;-78
2021/01/07 04:18:45;;;;;;;3.80;1.88;;;;;;;1.98;93.95;101460.72;5078190;28;20100;-78
2021/01/07 04:21:10;;;;;;;7.40;2.15;;;;;;;1.96;93.93;101460.63;5078587;28;20035;-80
2021/01/07 04:23:36;;;;;;;3.13;1.40;;;;;;;1.94;93.90;101451.13;5079932;28;20025;-80
2021/01/07 04:26:02;;;;;;;5.40;1.07;;;;;;;1.94;93.78;101454.53;5080504;28;20031;-79
2021/01/07 04:28:27;;;;;;;4.13;1.63;;;;;;;1.88;94.12;101449.94;5081950;28;20840;-79
2021/01/07 04:30:52;;;;;;;7.93;1.53;;;;;;;1.91;93.70;101449.28;5080758;28;20111;-79
2021/01/07 04:33:17;;;;;;;2.13;1.10;;;;;;;1.87;93.53;101448.19;5080951;28;20047;-79
2021/01/07 04:35:46;;;;;;;4.20;1.07;;;;;;;1.87;93.77;101449.84;5080080;28;20297;-80
2021/01/07 04:38:11;;;;;;;1.97;0.93;;;;;;;1.93;93.89;101444.31;5080844;28;20289;-80
2021/01/07 04:40:36;;;;;;;2.97;1.08;;;;;;;1.95;93.88;101446.19;5081204;28;20020;-79
2021/01/07 04:43:02;;;;;;;2.22;0.80;;;;;;;1.95;93.78;101446.19;5082426;28;20055;-79
2021/01/07 04:45:28;;;;;;;4.47;0.90;;;;;;;1.93;93.80;101444.31;5078400;28;20023;-79
2021/01/07 04:47:54;;;;;;;2.63;1.10;;;;;;;1.92;94.03;101450.16;5082051;28;20032;-79
2021/01/07 04:50:20;;;;;;;3.17;1.20;;;;;;;1.87;94.05;101443.13;5081074;28;20021;-80
2021/01/07 04:52:45;;;;;;;4.28;1.15;;;;;;;1.82;93.83;101441.94;5081532;28;20030;-79
2021/01/07 04:55:11;;;;;;;2.50;0.90;;;;;;;1.81;93.76;101442.72;5083045;28;20025;-81
2021/01/07 04:57:36;;;;;;;;;;;;;;;1.77;93.66;101437.34;5082241;28;20032;-81
2021/01/07 05:00:12;;;;;;;3.07;0.73;;;;;;;1.76;93.95;101439.00;5080998;28;19970;-80
2021/01/07 05:02:38;;;;;;;2.03;1.23;;;;;;;1.76;93.74;101440.66;5082588;28;20048;-82
2021/01/07 05:05:04;;;;;;;;;;;;;;;1.71;93.84;101424.25;5081634;28;20078;-80
2021/01/07 05:07:29;;;;;;;0.83;0.40;;;;;;;1.73;93.97;101425.25;5082300;28;20449;-81
2021/01/07 05:10:06;;;;;;;1.38;0.40;;;;;;;1.70;93.92;101425.91;5082982;28;20064;-82
2021/01/07 05:12:31;;;;;;;1.05;0.50;;;;;;;1.70;93.86;101425.91;5083167;28;20020;-81
2021/01/07 05:14:57;;;;;;;0.90;0.55;;;;;;;1.69;94.06;101424.16;5083597;28;20047;-80
2021/01/07 05:17:22;;;;;;;0.68;0.30;;;;;;;1.68;94.10;101419.88;5082309;28;20023;-80
2021/01/07 05:19:47;;;;;;;1.25;0.50;;;;;;;1.64;94.11;101420.44;5083548;28;20043;-80
2021/01/07 05:22:13;;;;;;;0.70;0.30;;;;;;;1.65;94.13;101421.31;5086407;28;20036;-80
2021/01/07 05:24:39;;;;;;;1.95;0.50;;;;;;;1.64;94.09;101420.44;5085358;28;20016;-81
2021/01/07 05:27:10;;;;;;;0.63;0.30;;;;;;;1.68;94.26;101419.00;5084837;28;20528;-80
2021/01/07 05:29:39;;;;;;;1.43;0.40;;;;;;;1.70;94.21;101422.50;5082803;28;20030;-79
2021/01/07 05:32:06;;;;;;;2.47;0.50;;;;;;;1.66;94.32;101416.34;5082311;28;20453;-79
2021/01/07 05:34:31;;;;;;;2.30;0.50;;;;;;;1.70;94.59;101419.97;5082783;28;20035;-79
2021/01/07 05:36:59;;;;;;;2.55;0.73;;;;;;;1.74;94.58;101419.41;5087197;28;20031;-78
2021/01/07 05:39:34;;;;;;;1.63;0.80;;;;;;;1.74;94.48;101417.75;5083834;28;20162;-79
2021/01/07 05:42:01;;;;;;;2.53;0.60;;;;;;;1.79;94.43;101413.00;5084147;28;20513;-79
2021/01/07 05:44:31;;;;;;;1.03;0.60;;;;;;;1.81;94.46;101422.44;5084682;28;20111;-77
2021/01/07 05:46:56;;;;;;;2.60;0.60;;;;;;;1.87;94.23;101415.25;5081044;28;20096;-77
2021/01/07 05:49:34;;;;;;;3.28;0.98;;;;;;;1.86;94.46;101405.91;5085451;28;20485;-78
2021/01/07 05:52:01;;;;;;;3.30;0.70;;;;;;;1.93;94.38;101408.84;5082426;28;20020;-79
2021/01/07 05:54:26;;;;;;;4.00;0.87;;;;;;;1.92;94.25;101410.50;5080026;28;20405;-79
2021/01/07 05:56:53;;;;;;;1.88;0.70;;;;;;;1.90;94.33;101406.97;5083281;28;20037;-79
2021/01/07 05:59:19;;;;;;;2.73;0.83;;;;;;;1.92;94.33;101410.50;5081457;28;20440;-80
2021/01/07 06:01:45;;;;;;;3.50;0.73;;;;;;;1.90;94.28;101406.97;5081912;28;20082;-79
2021/01/07 06:04:10;;;;;;;4.57;1.20;;;;;;;1.93;94.38;101407.19;5082361;28;20027;-79
2021/01/07 06:06:36;;;;;;;3.08;1.25;;;;;;;1.91;94.46;101406.19;5083561;28;20541;-79
2021/01/07 06:09:03;;;;;;;2.95;1.10;;;;;;;1.93;94.38;101412.25;5084194;28;20023;-79
2021/01/07 06:11:30;;;;;;;3.57;1.13;;;;;;;1.95;94.50;101408.19;5084738;28;20046;-79
2021/01/07 06:13:56;;;;;;;3.97;0.97;;;;;;;1.97;94.76;101415.91;5079974;28;20012;-79
2021/01/07 06:16:24;;;;;;;3.27;0.90;;;;;;;2.00;94.46;101413.56;5082867;28;20020;-78
2021/01/07 06:18:49;;;;;;;2.27;0.70;;;;;;;1.98;94.54;101416.00;5079587;28;20040;-79
2021/01/07 06:21:16;;;;;;;2.47;0.98;;;;;;;1.97;94.32;101408.28;5078970;28;20505;-79
2021/01/07 06:23:46;;;;;;;1.80;0.60;;;;;;;1.98;94.49;101413.47;5081454;28;20032;-79
2021/01/07 06:26:24;;;;;;;1.70;0.63;;;;;;;1.92;94.47;101409.63;5081632;28;20031;-79
2021/01/07 06:28:54;;;;;;;2.13;0.50;;;;;;;1.94;94.98;101415.66;5077666;22;20049;-76
2021/01/07 06:31:20;;;;;;;4.07;0.97;;;;;;;1.95;95.02;101410.72;5048321;28;20037;-77
2021/01/07 06:33:48;;;;;;;;;;;;;;;1.94;95.02;101414.00;5044475;28;20501;-77
2021/01/07 06:36:14;;;;;;;1.63;0.60;;;;;;;1.94;95.10;101414.00;5032793;28;19919;-77
2021/01/07 06:38:51;;;;;;;1.73;0.57;;;;;;;1.98;95.15;101415.13;5032435;28;20029;-77
2021/01/07 06:41:17;;;;;;;0.82;0.45;;;;;;;1.99;95.20;101411.81;5030594;28;20025;-76
2021/01/07 06:43:45;;;;;;;2.70;0.70;;;;;;;2.00;95.11;101411.03;5034013;28;20035;-77
2021/01/07 06:46:10;;;;;;;2.10;0.90;;;;;;;2.02;94.97;101414.53;5034950;28;20554;-77
2021/01/07 06:48:37;;;;;;;3.13;0.90;;;;;;;2.02;95.33;101412.88;5052254;28;20108;-77
2021/01/07 06:51:04;;;;;;;2.20;0.90;;;;;;;2.02;95.13;101424.69;5039163;28;20337;-77
2021/01/07 06:53:35;;;;;;;3.33;1.17;;;;;;;2.04;95.17;101416.41;5042015;28;20036;-76
2021/01/07 06:56:15;;;;;;;2.70;0.90;;;;;;;2.04;95.16;101415.53;5039485;28;20794;-76
2021/01/07 06:58:41;;;;;;;4.13;0.97;;;;;;;2.06;94.93;101416.50;5034979;28;20075;-76
2021/01/07 07:01:13;;;;;;;2.27;0.90;;;;;;;2.04;94.95;101420.59;5051502;28;20051;-77
2021/01/07 07:03:50;;;;;;;2.30;1.20;;;;;;;2.04;94.88;101425.66;5050677;28;20455;-76
2021/01/07 07:06:17;;;;;;;3.50;0.90;;;;;;;2.01;94.60;101420.38;5050513;28;20060;-77
2021/01/07 07:08:45;;;;;;;2.90;0.90;;;;;;;2.03;94.66;101418.84;5050808;28;20028;-77
2021/01/07 07:11:12;;;;;;;1.67;0.80;;;;;;;2.03;94.63;101418.84;5050794;28;20040;-77
2021/01/07 07:13:42;;;;;;;2.27;1.00;;;;;;;1.99;94.65;101419.41;5050938;28;20098;-77
2021/01/07 07:16:10;;;;;;;2.47;1.20;;;;;;;2.00;94.44;101423.69;5039432;28;20056;-77
2021/01/07 07:18:37;;;;;;;1.30;0.60;;;;;;;1.96;94.11;101427.69;5047920;28;20090;-77
2021/01/07 07:21:21;;;;;;;0.93;0.50;;;;;;;1.97;94.14;101421.84;5047426;28;20029;-77
2021/01/07 07:23:47;;;;;;;2.77;0.63;;;;;;;1.90;94.08;101433.97;5036583;28;20108;-78
2021/01/07 07:26:38;;;;;;;3.03;0.77;;;;;;;1.91;94.10;101428.13;5040352;28;20025;-77
2021/01/07 07:29:08;;;;;;;2.73;1.07;;;;;;;1.93;94.40;101436.69;5029639;28;20022;-77
2021/01/07 07:31:39;;;;;;;1.40;0.70;;;;;;;1.94;94.34;101438.47;5035760;28;20063;-79
2021/01/07 07:34:05;;;;;;;3.50;0.73;;;;;;;1.94;94.48;101433.41;5049094;28;20472;-77
2021/01/07 07:36:31;;;;;;;;;;;;;;;1.95;94.42;101436.06;5044694;28;20025;-77
2021/01/07 07:38:57;;;;;;;1.30;0.60;;;;;;;1.95;94.21;101438.59;5051897;28;19913;-77
2021/01/07 07:41:26;;;;;;;2.42;0.80;;;;;;;1.93;94.43;101436.69;5051853;28;20033;-77
2021/01/07 07:43:53;;;;;;;1.87;0.67;;;;;;;1.95;94.43;101446.19;5039551;28;20139;-77
2021/01/07 07:46:24;;;;;;;2.47;0.70;;;;;;;1.96;94.19;101442.00;5040800;28;20025;-77
2021/01/07 07:48:57;;;;;;;3.67;0.70;;;;;;;1.98;93.89;101430.31;5051947;28;20087;-77
2021/01/07 07:51:23;;;;;;;1.87;0.80;;;;;;;1.95;93.97;101427.56;5040950;28;20116;-77
2021/01/07 07:53:49;;;;;;;2.83;0.50;;;;;;;1.94;94.32;101436.81;5031696;28;20025;-77
2021/01/07 07:56:22;;;;;;;2.03;0.70;;;;;;;1.98;94.04;101445.53;5039655;28;20032;-77
2021/01/07 07:58:48;;;;;;;0.93;0.50;;;;;;;1.94;94.17;101454.53;5051224;28;20037;-77
2021/01/07 08:01:13;;;;;;;;;;;;;;;1.97;94.16;101446.31;5041839;28;20029;-77
2021/01/07 08:03:39;;;;;;;3.90;0.80;;;;;;;1.96;94.12;101442.00;5048665;28;19990;-78
2021/01/07 08:06:04;;;;;;;0.88;0.45;;;;;;;1.98;94.02;101446.41;5034765;28;20029;-77
2021/01/07 08:08:32;;;;;;;3.55;0.93;;;;;;;1.97;94.14;101453.91;5033619;28;20021;-77
2021/01/07 08:11:01;;;;;;;1.53;0.70;;;;;;;2.04;94.13;101456.94;5049223;28;20123;-77
2021/01/07 08:13:29;;;;;;;4.97;1.20;;;;;;;2.02;93.95;101455.97;5046056;28;20093;-78
2021/01/07 08:15:56;;;;;;;3.83;0.77;;;;;;;2.03;94.17;101460.25;5042196;28;20151;-77
2021/01/07 08:18:26;;;;;;;2.57;1.20;;;;;;;2.06;94.21;101459.56;5032340;28;20041;-77
2021/01/07 08:20:53;;;;;;;1.80;1.20;;;;;;;2.11;94.33;101463.28;5035489;28;20143;-77
2021/01/07 08:23:20;;;;;;;3.97;1.23;;;;;;;2.07;94.19;101463.88;5053347;28;20032;-78
2021/01/07 08:25:47;;;;;;;4.03;0.90;;;;;;;2.00;94.01;101460.06;5051197;28;20021;-78
2021/01/07 08:28:22;;;;;;;4.83;1.77;;;;;;;1.98;93.71;101461.59;5051642;28;20274;-77
2021/01/07 08:30:50;;;;;;;3.40;1.00;;;;;;;1.91;93.61;101448.38;5052874;28;20041;-79
2021/01/07 08:33:18;;;;;;;4.63;1.00;;;;;;;1.92;93.16;101455.22;5051504;28;20055;-77
2021/01/07 08:35:45;;;;;;;2.90;0.70;;;;;;;1.88;93.67;101457.53;5051388;28;21447;-77
2021/01/07 08:38:21;;;;;;;2.60;0.73;;;;;;;1.92;93.80;101465.34;5044554;28;20030;-78
2021/01/07 08:40:46;;;;;;;;;;;;;;;1.88;93.78;101451.59;5047029;28;20063;-77
2021/01/07 08:43:12;;;;;;;5.40;1.10;;;;;;;1.91;93.55;101448.38;5047360;28;19913;-77
2021/01/07 08:45:38;;;;;;;8.85;1.10;;;;;;;1.95;93.62;101455.41;5035707;28;20120;-78
2021/01/07 08:48:07;;;;;;;4.07;0.90;;;;;;;1.98;93.39;101455.66;5047333;28;20017;-79
2021/01/07 08:50:34;;;;;;;4.80;0.87;;;;;;;1.98;93.64;101455.66;5035058;28;20025;-79
2021/01/07 08:53:05;;;;;;;4.73;0.90;;;;;;;2.01;93.62;101464.34;5035583;28;20025;-77
2021/01/07 08:55:44;;;;;;;6.93;1.13;;;;;;;2.01;93.78;101463.47;5034178;28;20097;-78
2021/01/07 08:58:09;;;;;;;3.93;1.20;;;;;;;2.02;93.97;101457.63;5037144;28;20120;-80
2021/01/07 09:00:34;;;;;;;3.57;1.10;;;;;;;2.06;93.99;101463.00;5039795;28;20240;-78
2021/01/07 09:03:01;;;;;;;4.47;1.10;;;;;;;2.00;93.79;101469.31;5044146;28;20275;-78
2021/01/07 09:05:26;;;;;;;5.93;1.20;;;;;;;2.01;93.91;101466.00;5052566;28;20171;-77
2021/01/07 09:08:06;;;;;;;5.35;1.38;;;;;;;1.94;93.94;101464.69;5053177;28;20049;-79
2021/01/07 09:10:31;;;;;;;2.93;0.93;;;;;;;2.05;94.06;101465.44;5053749;28;20037;-77
2021/01/07 09:12:56;;;;;;;4.60;1.40;;;;;;;2.07;93.93;101464.75;5043602;28;20025;-77
2021/01/07 09:15:25;;;;;;;3.13;1.10;;;;;;;2.12;93.47;101470.13;5049823;28;20044;-77
2021/01/07 09:17:58;;;;;;;5.13;1.23;;;;;;;2.16;93.53;101461.94;5042894;28;20275;-78
2021/01/07 09:20:31;;;;;;;4.73;1.10;;;;;;;2.17;93.11;101463.69;5034594;28;20040;-79
2021/01/07 09:23:05;;;;;;;4.30;1.27;;;;;;;2.20;93.06;101463.91;5033543;28;20026;-77
2021/01/07 09:25:31;;;;;;;5.63;1.23;;;;;;;2.30;93.42;101471.38;5050980;28;20025;-77
2021/01/07 09:27:58;;;;;;;13.13;2.15;;;;;;;2.31;93.36;101470.59;5043278;28;20040;-78
2021/01/07 09:30:24;;;;;;;9.07;1.20;;;;;;;2.34;93.39;101468.25;5043119;28;20035;-77
2021/01/07 09:32:49;;;;;;;10.30;2.33;;;;;;;2.38;93.08;101466.81;5043172;28;20033;-78
2021/01/07 09:35:15;;;;;;;4.90;1.30;;;;;;;2.40;93.25;101467.78;5043142;28;20033;-79
2021/01/07 09:37:40;;;;;;;6.10;2.00;;;;;;;2.46;93.54;101469.06;5041136;28;20374;-79
2021/01/07 09:40:07;;;;;;;7.88;1.27;;;;;;;2.47;92.87;101473.34;5054239;28;20083;-79
2021/01/07 09:42:32;;;;;;;;;;;;;;;2.53;93.01;101470.34;5052217;28;20033;-77
2021/01/07 09:44:58;;;;;;;8.47;1.50;;;;;;;2.56;93.22;101472.19;5037785;28;19917;-77
2021/01/07 09:47:24;;;;;;;9.43;1.30;;;;;;;2.47;93.41;101473.34;5044742;28;20098;-76
2021/01/07 09:49:49;;;;;;;8.43;1.58;;;;;;;2.54;93.43;101483.88;5041461;28;20029;-78
2021/01/07 09:52:15;;;;;;;5.13;1.25;;;;;;;2.44;94.02;101474.81;5034924;28;20052;-78
2021/01/07 09:54:40;;;;;;;3.45;0.77;;;;;;;2.36;92.98;101471.78;5035714;28;20080;-78
2021/01/07 09:57:06;;;;;;;5.43;1.10;;;;;;;2.36;93.06;101473.44;5035369;28;20495;-78
2021/01/07 09:59:31;;;;;;;3.38;0.98;;;;;;;2.34;93.17;101472.44;5038112;28;20275;-77
2021/01/07 10:01:57;;;;;;;4.90;1.02;;;;;;;2.40;93.11;101473.72;5035195;28;20458;-78
2021/01/07 10:04:23;;;;;;;;;;;;;;;2.38;93.46;101480.34;5035359;28;20032;-77
2021/01/07 10:06:49;;;;;;;6.20;1.27;;;;;;;2.40;93.12;101473.72;5038776;28;19912;-77
2021/01/07 10:09:14;;;;;;;;;;;;;;;2.41;92.98;101464.47;5037311;28;20037;-78
2021/01/07 10:11:40;;;;;;;5.93;1.00;;;;;;;2.47;93.04;101469.94;5053475;28;19912;-78
2021/01/07 10:14:06;;;;;;;5.30;0.80;;;;;;;2.48;92.68;101464.97;5051997;28;20060;-77
2021/01/07 10:16:31;;;;;;;4.13;0.98;;;;;;;2.47;93.00;101465.75;5050814;28;20029;-77
2021/01/07 10:18:57;;;;;;;3.97;1.17;;;;;;;2.58;92.91;101468.97;5048572;28;20026;-76
2021/01/07 10:21:24;;;;;;;2.85;0.82;;;;;;;2.62;92.90;101462.47;5042609;28;20029;-77
2021/01/07 10:23:54;;;;;;;1.93;0.63;;;;;;;2.59;93.16;101465.66;5035760;28;20033;-77
2021/01/07 10:26:20;;;;;;;6.00;1.30;;;;;;;2.65;93.32;101460.13;5038341;28;20021;-77
2021/01/07 10:28:47;;;;;;;3.15;0.70;;;;;;;2.60;92.36;101458.94;5037114;28;20123;-77
2021/01/07 10:31:14;;;;;;;6.30;1.20;;;;;;;2.61;92.16;101458.19;5034577;28;20034;-77
2021/01/07 10:33:44;;;;;;;1.93;0.77;;;;;;;2.62;92.34;101453.19;5033758;28;20091;-77
2021/01/07 10:36:16;;;;;;;4.30;0.93;;;;;;;2.66;92.01;101461.88;5038290;28;20492;-77
2021/01/07 10:38:45;;;;;;;4.33;0.80;;;;;;;2.62;92.18;101454.88;5038525;28;20029;-78
2021/01/07 10:41:13;;;;;;;2.57;0.97;;;;;;;2.52;91.89;101462.63;5034515;28;20029;-77
2021/01/07 10:43:39;;;;;;;2.27;0.90;;;;;;;2.46;92.13;101453.84;5040059;28;20703;-76
2021/01/07 10:46:04;;;;;;;6.72;1.45;;;;;;;2.45;92.18;101454.63;5031425;28;20025;-76
2021/01/07 10:48:31;;;;;;;4.80;1.20;;;;;;;2.40;92.37;101455.97;5034033;28;20021;-78
2021/01/07 10:50:59;;;;;;;6.47;1.03;;;;;;;2.42;92.92;101454.41;5036946;28;20021;-79
2021/01/07 10:53:59;;;;;;;6.97;1.07;;;;;;;2.55;92.65;101453.56;5037288;28;20051;-78
2021/01/07 10:57:00;;;;;;;5.47;1.33;;;;;;;2.65;92.42;101449.97;5013197;28;20053;-79
2021/01/07 10:59:51;;;;;;;4.73;0.87;;;;;;;2.60;92.00;101452.22;5034457;28;20043;-78
2021/01/07 11:02:47;;;;;;;7.67;1.33;;;;;;;2.64;92.00;101454.19;5034140;28;20065;-78
2021/01/07 11:05:22;;;;;;;5.30;0.97;;;;;;;2.63;91.74;101436.31;5043204;28;20091;-77
2021/01/07 11:08:14;;;;;;;3.17;1.10;;;;;;;2.65;91.88;101433.09;5051284;28;20033;-77
2021/01/07 11:10:48;;;;;;;7.13;1.30;;;;;;;2.69;92.47;101434.19;5051537;28;20596;-79
2021/01/07 11:13:14;;;;;;;6.63;1.00;;;;;;;2.81;91.83;101422.28;5050891;28;20384;-77
2021/01/07 11:15:44;;;;;;;9.55;1.65;;;;;;;2.92;91.82;101425.47;5051268;28;20036;-77
2021/01/07 11:18:19;;;;;;;13.00;1.33;;;;;;;3.06;91.06;101428.13;5047781;28;20048;-78
2021/01/07 11:20:48;;;;;;;3.97;1.37;;;;;;;3.16;90.51;101431.22;5036712;28;20392;-77
2021/01/07 11:23:14;;;;;;;4.40;1.03;;;;;;;3.20;90.78;101418.81;5031030;28;20038;-76
2021/01/07 11:25:39;;;;;;;4.72;1.40;;;;;;;3.31;90.69;101414.44;5030459;28;20033;-76
2021/01/07 11:28:05;;;;;;;5.20;1.83;;;;;;;3.39;90.53;101414.09;5043301;28;20031;-78
2021/01/07 11:30:30;;;;;;;6.80;1.50;;;;;;;3.42;90.23;101421.03;5051485;28;20398;-77
2021/01/07 11:32:56;;;;;;;8.98;1.65;;;;;;;3.50;89.48;101408.78;5044287;28;20025;-77
2021/01/07 11:35:22;;;;;;;8.18;1.80;;;;;;;3.63;89.68;101412.19;5039121;28;20505;-78
2021/01/07 11:37:58;;;;;;;5.22;1.48;;;;;;;3.62;89.66;101407.91;5050905;28;20552;-77